Time;durP1;ratioP1;P1;durP2;ratioP2;P2;SDS_P1;SDS_P2;PMS_P1;PMS_P2;Temp;Humidity;BMP_temperature;BMP_pressure;BME280_temperature;BME280_humidity;BME280_pressure;Samples;Min_cycle;Max_cycle;Signal;HPM_P1;HPM_P2
2023/05/18 00:00:00;;;;;;;17.58;3.33;;;8.20;99.90;;;;;;5017056;28;20033;-76
2023/05/18 00:02:26;;;;;;;11.95;3.90;;;8.30;99.90;;;;;;5025517;28;20030;-74
2023/05/18 00:04:51;;;;;;;13.60;3.60;;;8.20;99.90;;;;;;5014160;28;20501;-74
2023/05/18 00:07:17;;;;;;;11.82;3.63;;;8.20;99.90;;;;;;5013860;28;20481;-74
2023/05/18 00:09:42;;;;;;;14.10;4.78;;;8.20;99.90;;;;;;5013810;28;20470;-74
2023/05/18 00:12:08;;;;;;;14.05;3.85;;;8.20;99.90;;;;;;5018005;28;20532;-74
2023/05/18 00:14:35;;;;;;;14.40;4.68;;;8.20;99.90;;;;;;5025083;28;20028;-74
2023/05/18 00:17:01;;;;;;;12.07;4.03;;;8.20;99.90;;;;;;5023872;28;20493;-73
2023/05/18 00:19:28;;;;;;;12.25;3.78;;;8.10;99.90;;;;;;5017940;28;20026;-74
2023/05/18 00:21:57;;;;;;;10.10;4.10;;;8.10;99.90;;;;;;5029735;28;20021;-74
2023/05/18 00:24:23;;;;;;;10.98;3.80;;;8.10;99.90;;;;;;5019529;28;20029;-78
2023/05/18 00:26:48;;;;;;;15.57;4.30;;;8.10;99.90;;;;;;5023077;28;20101;-77
2023/05/18 00:29:14;;;;;;;14.98;4.15;;;8.10;99.90;;;;;;5026236;28;20069;-78
2023/05/18 00:31:41;;;;;;;12.10;3.70;;;8.10;99.90;;;;;;5017102;28;20455;-76
2023/05/18 00:34:08;;;;;;;11.82;3.55;;;8.10;99.90;;;;;;5006325;28;20071;-77
2023/05/18 00:36:34;;;;;;;14.20;4.00;;;8.10;99.90;;;;;;5036589;28;20025;-75
2023/05/18 00:39:00;;;;;;;11.40;4.35;;;8.10;99.90;;;;;;5021161;28;20052;-74
2023/05/18 00:41:27;;;;;;;15.82;4.18;;;8.10;99.90;;;;;;5019825;28;20474;-75
2023/05/18 00:43:53;;;;;;;12.80;3.80;;;8.10;99.90;;;;;;5029182;28;20454;-73
2023/05/18 00:46:19;;;;;;;10.40;4.15;;;8.10;99.90;;;;;;5018707;28;20095;-74
2023/05/18 00:48:45;;;;;;;11.38;3.80;;;8.10;99.90;;;;;;5037847;28;20034;-74
2023/05/18 00:51:11;;;;;;;10.10;3.38;;;8.10;99.90;;;;;;5021264;28;20493;-76
2023/05/18 00:53:37;;;;;;;12.40;4.00;;;8.10;99.90;;;;;;5015504;28;20033;-74
2023/05/18 00:56:03;;;;;;;11.60;3.63;;;8.10;99.90;;;;;;5028694;28;20018;-73
2023/05/18 00:58:30;;;;;;;11.70;4.03;;;8.10;99.90;;;;;;5019824;28;20497;-73
2023/05/18 01:00:56;;;;;;;11.07;3.72;;;8.10;99.90;;;;;;5021154;28;20378;-74
2023/05/18 01:03:21;;;;;;;14.15;3.80;;;8.10;99.90;;;;;;5026771;28;20041;-73
2023/05/18 01:05:54;;;;;;;12.98;3.55;;;8.10;99.90;;;;;;5044274;28;20029;-76
2023/05/18 01:08:25;;;;;;;12.57;3.97;;;8.10;99.90;;;;;;5016547;28;20029;-74
2023/05/18 01:10:55;;;;;;;9.75;3.67;;;8.10;99.90;;;;;;5021787;28;20041;-73
2023/05/18 01:13:35;;;;;;;9.23;3.75;;;8.10;99.90;;;;;;5025180;28;20430;-74
2023/05/18 01:16:07;;;;;;;12.70;4.03;;;8.10;99.90;;;;;;5015666;28;20104;-74
2023/05/18 01:18:42;;;;;;;13.13;3.88;;;8.10;99.90;;;;;;5023993;28;20037;-73
2023/05/18 01:21:18;;;;;;;17.92;3.75;;;8.10;99.90;;;;;;5024888;28;20512;-76
2023/05/18 01:24:20;;;;;;;13.63;3.88;;;8.10;99.90;;;;;;5011264;28;20026;-73
2023/05/18 01:26:49;;;;;;;14.57;4.00;;;8.10;99.90;;;;;;5021686;28;20405;-73
2023/05/18 01:29:17;;;;;;;12.27;3.60;;;8.10;99.90;;;;;;5025624;28;20045;-73
2023/05/18 01:31:43;;;;;;;16.63;3.75;;;8.10;99.90;;;;;;5015207;28;20054;-73
2023/05/18 01:34:09;;;;;;;12.60;3.67;;;8.10;99.90;;;;;;5027792;28;20803;-74
2023/05/18 01:36:35;;;;;;;13.20;3.40;;;8.20;99.90;;;;;;5020096;28;20025;-74
2023/05/18 01:39:01;;;;;;;11.75;3.55;;;8.20;99.90;;;;;;5016286;28;20132;-73
2023/05/18 01:41:28;;;;;;;11.27;3.67;;;8.20;99.90;;;;;;5011605;28;20161;-76
2023/05/18 01:44:21;;;;;;;9.23;3.70;;;8.20;99.90;;;;;;5010282;28;20034;-73
2023/05/18 01:47:11;;;;;;;11.77;3.33;;;8.20;99.90;;;;;;4991168;28;20390;-77
2023/05/18 01:50:03;;;;;;;12.25;3.70;;;8.20;99.90;;;;;;5004659;28;20041;-74
2023/05/18 01:52:36;;;;;;;12.00;4.10;;;8.20;99.90;;;;;;5012112;28;20030;-74
2023/05/18 01:55:03;;;;;;;13.73;4.55;;;8.10;99.90;;;;;;5012317;28;20493;-74
2023/05/18 01:57:31;;;;;;;11.40;4.20;;;8.10;99.90;;;;;;5012474;28;20029;-75
2023/05/18 02:00:00;;;;;;;11.23;3.75;;;8.10;99.90;;;;;;5015363;28;20057;-76
2023/05/18 02:02:27;;;;;;;13.50;4.22;;;8.10;99.90;;;;;;5010595;28;20117;-74
2023/05/18 02:04:52;;;;;;;16.63;4.35;;;8.10;99.90;;;;;;5011924;28;20057;-75
2023/05/18 02:07:18;;;;;;;10.75;3.53;;;8.10;99.90;;;;;;5025061;28;20466;-73
2023/05/18 02:09:43;;;;;;;12.23;4.13;;;8.10;99.90;;;;;;5010908;28;20038;-77
2023/05/18 02:12:10;;;;;;;14.10;3.95;;;8.10;99.90;;;;;;5016100;28;20041;-74
2023/05/18 02:14:36;;;;;;;13.02;3.97;;;8.10;99.90;;;;;;5011989;28;20476;-73
2023/05/18 02:17:02;;;;;;;12.02;3.85;;;8.10;99.90;;;;;;5014961;28;20121;-76
2023/05/18 02:19:29;;;;;;;11.50;3.95;;;8.10;99.90;;;;;;5023278;28;20080;-76
2023/05/18 02:21:56;;;;;;;11.88;3.95;;;8.10;99.90;;;;;;5016212;28;20033;-76
2023/05/18 02:24:22;;;;;;;12.98;4.40;;;8.10;99.90;;;;;;5026306;28;20121;-74
2023/05/18 02:26:47;;;;;;;14.00;3.75;;;8.10;99.90;;;;;;5025365;28;20097;-75
2023/05/18 02:29:13;;;;;;;16.90;5.10;;;8.10;99.90;;;;;;5015563;28;20061;-73
2023/05/18 02:31:39;;;;;;;13.80;4.30;;;8.10;99.90;;;;;;5010734;28;20037;-74
2023/05/18 02:34:05;;;;;;;14.68;4.22;;;8.10;99.90;;;;;;5006718;28;20030;-77
2023/05/18 02:36:35;;;;;;;13.20;4.43;;;8.10;99.90;;;;;;5001214;28;20135;-74
2023/05/18 02:39:05;;;;;;;9.00;4.03;;;8.10;99.90;;;;;;5004457;28;20053;-74
2023/05/18 02:41:32;;;;;;;16.45;4.93;;;8.10;99.90;;;;;;5003386;28;20015;-74
2023/05/18 02:43:57;;;;;;;16.70;4.53;;;8.00;99.90;;;;;;5003784;28;20467;-74
2023/05/18 02:46:30;;;;;;;14.30;4.93;;;8.00;99.90;;;;;;5005168;28;20023;-75
2023/05/18 02:48:56;;;;;;;;;;;8.00;99.90;;;;;;5004214;28;20096;-77
2023/05/18 02:51:21;;;;;;;15.88;4.25;;;8.10;99.90;;;;;;5010589;28;19920;-73
2023/05/18 02:53:47;;;;;;;16.58;4.32;;;8.00;99.90;;;;;;5005950;28;20021;-74
2023/05/18 02:56:13;;;;;;;11.32;4.05;;;8.10;99.90;;;;;;5002329;28;20034;-74
2023/05/18 02:58:38;;;;;;;9.82;4.10;;;8.00;99.90;;;;;;5003705;28;20465;-73
2023/05/18 03:01:08;;;;;;;14.73;3.95;;;8.10;99.90;;;;;;5009167;28;20436;-75
2023/05/18 03:03:33;;;;;;;13.40;3.97;;;8.10;99.90;;;;;;5005489;28;20489;-75
2023/05/18 03:06:01;;;;;;;13.50;3.80;;;8.10;99.90;;;;;;5003948;28;20101;-76
2023/05/18 03:08:27;;;;;;;12.80;3.83;;;8.10;99.90;;;;;;5004954;28;20026;-75
2023/05/18 03:10:54;;;;;;;15.50;4.30;;;8.10;99.90;;;;;;5006437;28;20038;-75
2023/05/18 03:13:20;;;;;;;12.80;4.53;;;8.10;99.90;;;;;;5007834;28;20033;-74
2023/05/18 03:15:45;;;;;;;13.02;3.97;;;8.10;99.90;;;;;;5007867;28;20041;-77
2023/05/18 03:18:11;;;;;;;13.23;3.78;;;8.10;99.90;;;;;;5013474;28;20022;-74
2023/05/18 03:20:37;;;;;;;14.27;4.20;;;8.10;99.90;;;;;;5009907;28;20029;-76
2023/05/18 03:23:03;;;;;;;12.98;4.13;;;8.10;99.90;;;;;;5012079;28;20030;-75
2023/05/18 03:25:31;;;;;;;20.35;4.65;;;8.10;99.90;;;;;;5013834;28;20033;-76
2023/05/18 03:27:57;;;;;;;14.18;4.00;;;8.20;99.90;;;;;;5028912;28;20178;-77
2023/05/18 03:30:23;;;;;;;7.50;3.67;;;8.20;99.90;;;;;;5029111;28;20544;-75
2023/05/18 03:32:49;;;;;;;14.43;3.95;;;8.20;99.90;;;;;;5012203;28;20109;-73
2023/05/18 03:35:15;;;;;;;13.45;4.40;;;8.20;99.90;;;;;;5014292;28;20025;-76
2023/05/18 03:37:41;;;;;;;14.50;4.13;;;8.20;99.90;;;;;;5016933;28;20018;-77
2023/05/18 03:40:15;;;;;;;13.52;4.80;;;8.20;99.90;;;;;;5014220;28;20058;-76
2023/05/18 03:42:41;;;;;;;10.18;4.20;;;8.20;99.90;;;;;;5010526;28;20027;-76
2023/05/18 03:45:09;;;;;;;15.38;4.05;;;8.30;99.90;;;;;;5014695;28;20029;-74
2023/05/18 03:47:34;;;;;;;18.77;6.22;;;8.30;99.90;;;;;;5012271;28;20049;-74
2023/05/18 03:50:00;;;;;;;12.80;4.10;;;8.30;99.90;;;;;;5011844;28;20073;-75
2023/05/18 03:52:28;;;;;;;13.35;3.92;;;8.30;99.90;;;;;;5009149;28;20045;-73
2023/05/18 03:54:54;;;;;;;13.88;4.00;;;8.30;99.90;;;;;;5011692;28;20113;-77
2023/05/18 03:57:20;;;;;;;10.95;4.20;;;8.30;99.90;;;;;;5012142;28;20105;-76
2023/05/18 03:59:47;;;;;;;10.48;4.15;;;8.30;99.90;;;;;;5012584;28;20025;-76
2023/05/18 04:02:15;;;;;;;16.67;4.35;;;8.30;99.90;;;;;;5011208;28;20037;-74
2023/05/18 04:04:41;;;;;;;15.90;4.65;;;8.30;99.90;;;;;;5012574;28;20018;-72
2023/05/18 04:07:10;;;;;;;14.63;3.90;;;8.40;99.90;;;;;;5014493;28;20032;-77
2023/05/18 04:09:35;;;;;;;14.23;4.25;;;8.40;99.90;;;;;;5014481;28;20041;-77
2023/05/18 04:12:02;;;;;;;10.95;3.78;;;8.40;99.90;;;;;;5013042;28;20037;-78
2023/05/18 04:14:27;;;;;;;12.70;4.05;;;8.40;99.90;;;;;;5012132;28;20018;-76
2023/05/18 04:16:55;;;;;;;13.57;3.97;;;8.50;99.90;;;;;;5017810;28;20493;-74
2023/05/18 04:19:21;;;;;;;17.17;4.15;;;8.50;99.90;;;;;;5017871;28;20134;-73
2023/05/18 04:21:47;;;;;;;13.02;4.32;;;8.60;99.90;;;;;;5013489;28;20494;-74
2023/05/18 04:24:15;;;;;;;13.57;3.80;;;8.60;99.90;;;;;;5014091;28;20026;-73
2023/05/18 04:26:41;;;;;;;15.77;3.63;;;8.70;99.90;;;;;;5014062;28;20081;-74
2023/05/18 04:29:09;;;;;;;12.30;4.22;;;8.80;99.90;;;;;;5016474;28;20026;-74
2023/05/18 04:31:36;;;;;;;16.65;3.85;;;8.80;99.90;;;;;;5013860;28;20033;-75
2023/05/18 04:34:02;;;;;;;8.20;3.45;;;8.90;99.90;;;;;;5009180;28;20554;-74
2023/05/18 04:36:29;;;;;;;14.57;3.60;;;8.90;99.90;;;;;;5014811;28;20037;-73
2023/05/18 04:38:58;;;;;;;15.77;4.55;;;9.00;99.90;;;;;;5008940;28;20058;-73
2023/05/18 04:41:24;;;;;;;10.32;3.65;;;9.10;99.90;;;;;;5011900;28;20030;-73
2023/05/18 04:43:52;;;;;;;12.60;2.95;;;9.20;99.90;;;;;;5030471;28;20021;-73
2023/05/18 04:46:18;;;;;;;12.07;4.13;;;9.30;99.90;;;;;;5029879;28;20373;-73
2023/05/18 04:48:44;;;;;;;11.32;3.53;;;9.40;99.90;;;;;;5031097;28;20029;-73
2023/05/18 04:51:09;;;;;;;13.10;3.38;;;9.50;99.90;;;;;;5029492;28;20393;-74
2023/05/18 04:53:37;;;;;;;10.80;3.00;;;9.70;99.90;;;;;;5044801;28;20026;-74
2023/05/18 04:56:04;;;;;;;8.95;2.72;;;9.80;99.90;;;;;;5016302;28;20071;-74
2023/05/18 04:58:29;;;;;;;14.38;3.08;;;9.90;99.90;;;;;;5038499;28;20076;-73
2023/05/18 05:00:56;;;;;;;9.85;2.63;;;10.10;99.90;;;;;;5030696;28;20433;-74
2023/05/18 05:03:21;;;;;;;13.63;2.90;;;10.20;99.90;;;;;;5026504;28;20519;-73
2023/05/18 05:05:47;;;;;;;11.63;3.13;;;10.30;99.90;;;;;;5031835;28;20026;-77
2023/05/18 05:08:14;;;;;;;13.70;3.03;;;10.40;99.90;;;;;;5027411;28;20031;-73
2023/05/18 05:10:40;;;;;;;11.02;2.75;;;10.50;99.90;;;;;;5020011;28;20038;-74
2023/05/18 05:13:06;;;;;;;10.45;3.15;;;10.60;99.90;;;;;;5014020;28;20359;-74
2023/05/18 05:15:32;;;;;;;10.50;3.00;;;10.60;99.90;;;;;;5027299;28;20043;-74
2023/05/18 05:17:58;;;;;;;8.57;3.05;;;10.70;99.90;;;;;;5016662;28;20021;-74
2023/05/18 05:20:24;;;;;;;11.15;2.85;;;10.80;99.90;;;;;;5024253;28;20033;-74
2023/05/18 05:22:49;;;;;;;12.18;3.45;;;10.90;99.90;;;;;;5022393;28;20029;-74
2023/05/18 05:25:15;;;;;;;13.23;3.05;;;10.90;99.90;;;;;;5017148;28;20038;-74
2023/05/18 05:27:40;;;;;;;10.63;3.40;;;11.10;99.90;;;;;;5027657;28;20489;-74
2023/05/18 05:30:08;;;;;;;12.60;3.25;;;11.20;99.90;;;;;;5017135;28;20041;-74
2023/05/18 05:32:34;;;;;;;10.13;3.13;;;11.30;99.90;;;;;;5041626;28;20029;-74
2023/05/18 05:35:00;;;;;;;10.80;3.08;;;11.40;99.90;;;;;;5024443;28;20143;-74
2023/05/18 05:37:26;;;;;;;12.43;3.20;;;11.40;99.90;;;;;;5028414;28;20478;-74
2023/05/18 05:39:51;;;;;;;13.05;3.50;;;11.50;99.90;;;;;;5016619;28;20050;-73
2023/05/18 05:42:17;;;;;;;8.27;3.35;;;11.60;99.90;;;;;;5024424;28;20515;-74
2023/05/18 05:44:43;;;;;;;15.52;3.83;;;11.70;99.90;;;;;;5020749;28;20048;-74
2023/05/18 05:47:09;;;;;;;13.80;3.92;;;12.00;99.90;;;;;;5016915;28;20034;-75
2023/05/18 05:49:34;;;;;;;11.55;3.75;;;12.20;99.90;;;;;;5021426;28;20045;-77
2023/05/18 05:52:00;;;;;;;12.10;3.58;;;12.40;99.90;;;;;;5015351;28;20041;-75
2023/05/18 05:54:25;;;;;;;11.40;3.58;;;12.80;99.90;;;;;;5030360;28;20113;-75
2023/05/18 05:56:51;;;;;;;10.05;3.58;;;13.30;99.90;;;;;;5014099;28;20041;-74
2023/05/18 05:59:17;;;;;;;8.00;2.60;;;13.80;99.90;;;;;;5015304;28;20098;-74
2023/05/18 06:01:42;;;;;;;13.25;3.35;;;14.10;99.90;;;;;;5018607;28;20068;-74
2023/05/18 06:04:11;;;;;;;11.27;3.25;;;14.40;99.80;;;;;;5024588;28;20386;-74
2023/05/18 06:06:38;;;;;;;12.10;3.17;;;14.50;99.20;;;;;;5023514;28;20022;-74
2023/05/18 06:09:04;;;;;;;7.50;2.72;;;14.60;98.90;;;;;;5017124;28;20110;-74
2023/05/18 06:11:30;;;;;;;10.70;2.67;;;14.60;98.00;;;;;;5029758;28;20342;-73
2023/05/18 06:13:56;;;;;;;9.00;2.50;;;14.70;97.90;;;;;;5021403;28;20033;-73
2023/05/18 06:16:21;;;;;;;9.63;2.58;;;14.80;97.30;;;;;;5026855;28;20029;-73
2023/05/18 06:18:47;;;;;;;12.30;3.40;;;14.90;97.30;;;;;;5017264;28;20022;-73
2023/05/18 06:21:14;;;;;;;11.95;2.53;;;15.20;96.70;;;;;;5018136;28;20034;-73
2023/05/18 06:23:40;;;;;;;10.00;2.38;;;15.60;96.10;;;;;;5022635;28;20113;-74
2023/05/18 06:26:05;;;;;;;9.95;2.47;;;15.90;95.30;;;;;;5017905;28;20105;-73
2023/05/18 06:28:31;;;;;;;12.07;2.90;;;16.00;94.50;;;;;;5018478;28;20037;-74
2023/05/18 06:30:57;;;;;;;7.22;2.05;;;16.10;94.50;;;;;;5017793;28;20045;-73
2023/05/18 06:33:23;;;;;;;8.25;2.50;;;16.40;94.20;;;;;;5019512;28;20029;-74
2023/05/18 06:35:48;;;;;;;12.27;2.33;;;16.90;93.50;;;;;;5019471;28;20394;-73
2023/05/18 06:38:14;;;;;;;13.07;2.38;;;17.30;92.80;;;;;;5022744;28;20100;-74
2023/05/18 06:40:40;;;;;;;10.52;2.13;;;17.60;92.40;;;;;;5031919;28;20045;-74
2023/05/18 06:43:05;;;;;;;10.35;2.30;;;17.90;91.50;;;;;;5032369;28;20077;-72
2023/05/18 06:45:31;;;;;;;5.68;1.90;;;18.40;90.80;;;;;;5026648;28;20037;-73
2023/05/18 06:47:57;;;;;;;8.57;2.20;;;18.50;88.50;;;;;;5016474;28;20036;-74
2023/05/18 06:50:22;;;;;;;9.27;1.80;;;18.40;87.90;;;;;;5017278;28;20400;-75
2023/05/18 06:52:48;;;;;;;8.85;2.90;;;18.30;87.50;;;;;;5026316;28;20025;-74
2023/05/18 06:55:14;;;;;;;9.10;3.08;;;18.10;87.80;;;;;;5021276;28;20097;-74
2023/05/18 06:57:40;;;;;;;11.95;2.10;;;18.10;88.10;;;;;;5026359;28;20013;-74
2023/05/18 07:00:07;;;;;;;11.93;2.53;;;18.30;87.80;;;;;;5046691;28;20448;-73
2023/05/18 07:02:33;;;;;;;12.00;3.13;;;18.20;87.00;;;;;;5031714;28;20041;-73
2023/05/18 07:05:00;;;;;;;11.90;1.98;;;18.00;87.50;;;;;;5024962;28;20405;-74
2023/05/18 07:07:26;;;;;;;9.50;2.53;;;17.60;88.40;;;;;;5018679;28;20034;-74
2023/05/18 07:09:53;;;;;;;12.27;2.70;;;17.10;89.10;;;;;;5018037;28;20050;-74
2023/05/18 07:12:19;;;;;;;8.93;2.30;;;16.70;89.70;;;;;;5017427;28;20018;-73
2023/05/18 07:14:44;;;;;;;10.02;2.58;;;16.50;90.10;;;;;;5015807;28;20033;-74
2023/05/18 07:17:10;;;;;;;11.27;2.60;;;16.40;90.40;;;;;;5017023;28;20065;-74
2023/05/18 07:19:36;;;;;;;9.98;2.45;;;16.10;90.40;;;;;;5028404;28;20088;-75
2023/05/18 07:22:03;;;;;;;10.95;2.80;;;16.10;90.80;;;;;;5031275;28;20024;-77
2023/05/18 07:24:29;;;;;;;10.98;3.25;;;16.10;90.90;;;;;;5026075;28;20018;-74
2023/05/18 07:26:55;;;;;;;9.38;3.15;;;16.20;91.40;;;;;;5028585;28;20025;-74
2023/05/18 07:29:20;;;;;;;9.32;3.28;;;16.20;91.20;;;;;;5017526;28;20034;-75
2023/05/18 07:31:46;;;;;;;9.15;3.13;;;16.20;91.10;;;;;;5030239;28;20356;-75
2023/05/18 07:34:12;;;;;;;7.45;2.55;;;16.40;90.70;;;;;;5022602;28;20108;-78
2023/05/18 07:36:37;;;;;;;11.98;3.42;;;16.60;90.50;;;;;;5022938;28;20042;-75
2023/05/18 07:39:03;;;;;;;9.98;2.95;;;17.00;90.10;;;;;;5036904;28;20113;-75
2023/05/18 07:41:30;;;;;;;12.77;3.47;;;17.20;89.30;;;;;;5027501;28;20033;-75
2023/05/18 07:43:56;;;;;;;12.25;3.05;;;17.50;88.60;;;;;;5028131;28;20030;-75
2023/05/18 07:46:22;;;;;;;12.00;2.70;;;17.90;88.00;;;;;;5032481;28;20064;-77
2023/05/18 07:48:47;;;;;;;8.27;2.50;;;18.20;87.00;;;;;;5027031;28;20401;-77
2023/05/18 07:51:13;;;;;;;7.25;2.38;;;18.50;85.80;;;;;;5017552;28;20033;-75
2023/05/18 07:53:40;;;;;;;7.72;2.95;;;18.80;85.30;;;;;;5047249;28;20386;-74
2023/05/18 07:56:07;;;;;;;8.70;2.63;;;18.90;84.80;;;;;;5026890;28;20108;-76
2023/05/18 07:58:34;;;;;;;9.00;3.15;;;18.60;85.70;;;;;;5012645;28;20025;-73
2023/05/18 08:00:59;;;;;;;12.70;3.10;;;18.50;84.90;;;;;;5028077;28;20154;-76
2023/05/18 08:03:25;;;;;;;10.70;2.72;;;18.50;85.20;;;;;;5031086;28;20030;-75
2023/05/18 08:05:50;;;;;;;12.45;2.50;;;18.90;84.30;;;;;;5032324;28;20018;-75
2023/05/18 08:08:17;;;;;;;12.00;2.80;;;19.00;83.10;;;;;;5032057;28;20037;-73
2023/05/18 08:10:43;;;;;;;9.45;2.80;;;19.00;83.80;;;;;;5030141;28;20030;-73
2023/05/18 08:13:08;;;;;;;12.40;3.08;;;19.30;83.90;;;;;;5014881;28;20091;-75
2023/05/18 08:15:34;;;;;;;11.23;2.95;;;19.40;82.90;;;;;;5015215;28;20057;-74
2023/05/18 08:18:00;;;;;;;10.25;2.53;;;19.40;83.00;;;;;;5014567;28;20036;-72
2023/05/18 08:20:28;;;;;;;10.82;3.25;;;19.90;81.70;;;;;;5014386;28;20029;-73
2023/05/18 08:22:55;;;;;;;7.30;3.15;;;20.30;80.30;;;;;;5014591;28;20022;-73
2023/05/18 08:25:21;;;;;;;10.43;2.80;;;20.50;80.40;;;;;;5015301;28;20026;-73
2023/05/18 08:27:48;;;;;;;10.85;2.92;;;20.40;79.90;;;;;;5013956;28;20018;-73
2023/05/18 08:30:13;;;;;;;12.40;3.03;;;20.30;79.70;;;;;;5014528;28;20089;-74
2023/05/18 08:32:39;;;;;;;14.18;3.55;;;19.90;79.70;;;;;;5014726;28;20120;-74
2023/05/18 08:35:07;;;;;;;10.90;2.58;;;19.60;80.30;;;;;;5026111;28;20033;-74
2023/05/18 08:37:33;;;;;;;8.27;2.90;;;19.40;80.50;;;;;;5015604;28;20033;-74
2023/05/18 08:39:58;;;;;;;7.88;2.28;;;19.50;80.70;;;;;;5017096;28;20045;-73
2023/05/18 08:43:10;;;;;;;10.65;2.53;;;19.50;80.10;;;;;;5023785;28;20540;-74
2023/05/18 08:45:58;;;;;;;7.55;2.78;;;19.30;80.50;;;;;;5007376;28;20029;-73
2023/05/18 08:48:26;;;;;;;13.98;2.90;;;19.00;80.70;;;;;;5022246;28;20026;-74
2023/05/18 08:50:55;;;;;;;8.52;2.40;;;18.80;80.80;;;;;;5042134;28;20047;-74
2023/05/18 08:53:24;;;;;;;13.30;3.25;;;18.70;81.60;;;;;;5016022;28;20355;-75
2023/05/18 08:55:53;;;;;;;8.77;2.70;;;18.50;81.50;;;;;;5026474;28;20049;-74
2023/05/18 08:58:20;;;;;;;11.07;2.85;;;18.40;82.30;;;;;;5022538;28;20525;-74
2023/05/18 09:00:46;;;;;;;8.65;2.63;;;18.50;82.50;;;;;;5018959;28;20027;-73
2023/05/18 09:03:13;;;;;;;13.75;3.72;;;18.80;81.60;;;;;;5028621;28;20037;-73
2023/05/18 09:05:40;;;;;;;6.15;2.35;;;19.00;80.90;;;;;;5017362;28;20092;-72
2023/05/18 09:08:08;;;;;;;8.75;2.47;;;19.10;80.70;;;;;;5023802;28;20120;-75
2023/05/18 09:10:34;;;;;;;9.70;2.60;;;19.20;80.70;;;;;;5013111;28;20064;-75
2023/05/18 09:13:03;;;;;;;10.88;2.80;;;19.10;80.80;;;;;;5012826;28;20049;-72
2023/05/18 09:15:28;;;;;;;13.80;2.75;;;18.90;81.10;;;;;;5012766;28;20521;-75
2023/05/18 09:17:54;;;;;;;9.88;2.65;;;18.90;81.40;;;;;;5013566;28;20037;-74
2023/05/18 09:20:20;;;;;;;9.52;2.60;;;19.10;80.80;;;;;;5013056;28;20041;-73
2023/05/18 09:22:50;;;;;;;8.73;2.47;;;19.20;79.80;;;;;;5012691;28;20443;-72
2023/05/18 09:25:17;;;;;;;11.13;3.08;;;19.20;79.50;;;;;;5012215;28;20030;-73
2023/05/18 09:27:43;;;;;;;9.15;2.83;;;19.30;80.00;;;;;;5012038;28;20029;-72
2023/05/18 09:30:12;;;;;;;9.63;2.55;;;19.60;79.90;;;;;;5027651;28;20363;-73
2023/05/18 09:32:37;;;;;;;12.80;2.80;;;20.00;79.20;;;;;;5012726;28;20189;-73
2023/05/18 09:35:07;;;;;;;8.48;2.28;;;20.30;78.60;;;;;;5012669;28;20119;-76
2023/05/18 09:37:36;;;;;;;8.65;2.63;;;20.40;78.10;;;;;;5012379;28;20492;-73
2023/05/18 09:40:05;;;;;;;8.63;2.35;;;20.30;77.60;;;;;;5011945;28;20136;-74
2023/05/18 09:42:39;;;;;;;11.05;2.70;;;20.50;77.70;;;;;;5011896;28;20088;-72
2023/05/18 09:45:25;;;;;;;6.75;2.97;;;20.90;77.00;;;;;;5015454;28;20039;-72
2023/05/18 09:47:51;;;;;;;9.07;2.85;;;21.30;76.90;;;;;;4996538;28;20497;-73
2023/05/18 09:50:21;;;;;;;8.93;2.20;;;21.70;75.90;;;;;;4996531;28;20030;-73
2023/05/18 09:52:48;;;;;;;9.05;2.10;;;22.30;74.60;;;;;;4997360;28;20030;-73
2023/05/18 09:55:19;;;;;;;13.23;3.50;;;22.70;74.70;;;;;;5014522;28;20032;-73
2023/05/18 09:57:46;;;;;;;9.10;2.90;;;22.60;73.40;;;;;;5016287;28;20026;-73
2023/05/18 10:00:13;;;;;;;8.85;2.65;;;22.50;73.90;;;;;;5014759;28;20475;-73
2023/05/18 10:02:47;;;;;;;14.75;2.72;;;22.90;74.00;;;;;;5016384;28;20038;-73
2023/05/18 10:05:29;;;;;;;11.07;2.72;;;24.10;72.40;;;;;;5016256;28;20030;-73
2023/05/18 10:07:57;;;;;;;13.60;2.78;;;25.20;71.30;;;;;;5014915;28;20185;-73
2023/05/18 10:10:25;;;;;;;9.50;2.60;;;25.90;69.20;;;;;;5004393;28;20038;-74
2023/05/18 10:12:51;;;;;;;14.88;2.80;;;26.60;67.90;;;;;;5024188;28;20458;-73
2023/05/18 10:15:20;;;;;;;12.40;3.33;;;26.90;67.30;;;;;;5018738;28;20088;-73
2023/05/18 10:17:47;;;;;;;9.40;2.67;;;26.90;65.70;;;;;;5006245;28;20450;-73
2023/05/18 10:20:23;;;;;;;7.20;2.30;;;26.70;66.20;;;;;;5015511;28;20030;-73
2023/05/18 10:22:49;;;;;;;9.88;2.47;;;26.20;66.40;;;;;;5016118;28;20489;-73
2023/05/18 10:25:21;;;;;;;8.93;2.00;;;25.70;66.20;;;;;;5014813;28;20076;-73
2023/05/18 10:27:48;;;;;;;8.35;2.22;;;25.20;66.40;;;;;;5026692;28;20171;-73
2023/05/18 10:30:16;;;;;;;11.73;3.33;;;25.00;66.60;;;;;;5015003;28;20095;-73
2023/05/18 10:32:42;;;;;;;11.23;2.35;;;24.90;66.40;;;;;;5015312;28;20105;-74
2023/05/18 10:35:09;;;;;;;8.82;2.42;;;24.50;66.80;;;;;;5015695;28;20030;-73
2023/05/18 10:37:38;;;;;;;7.10;2.05;;;24.10;67.40;;;;;;5015596;28;20022;-73
2023/05/18 10:40:06;;;;;;;8.15;2.58;;;23.80;68.20;;;;;;5015070;28;20089;-73
2023/05/18 10:42:32;;;;;;;13.27;3.08;;;23.30;68.20;;;;;;5014709;28;20045;-73
2023/05/18 10:45:00;;;;;;;11.10;3.00;;;23.40;68.50;;;;;;5015538;28;20022;-73
2023/05/18 10:47:27;;;;;;;12.23;3.55;;;24.10;67.00;;;;;;5015037;28;20017;-73
2023/05/18 10:49:53;;;;;;;6.85;2.40;;;24.50;66.40;;;;;;5015280;28;20379;-73
2023/05/18 10:52:19;;;;;;;7.45;2.45;;;25.10;65.40;;;;;;5015302;28;20038;-74
2023/05/18 10:54:45;;;;;;;8.52;2.55;;;25.30;65.40;;;;;;5015423;28;20092;-73
2023/05/18 10:57:15;;;;;;;9.23;2.30;;;25.10;65.40;;;;;;5014820;28;20058;-73
2023/05/18 10:59:43;;;;;;;9.68;2.33;;;24.90;65.50;;;;;;5018945;28;20104;-74
2023/05/18 11:02:12;;;;;;;7.35;2.47;;;25.00;65.80;;;;;;5034637;28;20363;-73
2023/05/18 11:04:39;;;;;;;9.93;2.75;;;25.40;65.30;;;;;;5031508;28;20029;-73
2023/05/18 11:07:10;;;;;;;7.85;2.47;;;25.70;64.60;;;;;;5015764;28;20024;-76
2023/05/18 11:09:36;;;;;;;7.93;2.78;;;25.90;64.00;;;;;;5030648;28;20482;-72
2023/05/18 11:12:02;;;;;;;6.60;2.33;;;25.40;64.50;;;;;;5020914;28;20029;-75
2023/05/18 11:14:29;;;;;;;7.53;3.55;;;25.30;64.50;;;;;;5025687;28;20030;-78
2023/05/18 11:17:18;;;;;;;10.95;2.83;;;25.40;65.10;;;;;;5034703;28;20436;-73
2023/05/18 11:20:06;;;;;;;8.90;2.75;;;26.00;64.60;;;;;;5004185;28;20021;-75
2023/05/18 11:22:50;;;;;;;9.98;3.00;;;26.60;63.80;;;;;;5019485;28;20356;-73
2023/05/18 11:25:27;;;;;;;10.70;3.33;;;27.10;63.00;;;;;;5018547;28;20107;-74
2023/05/18 11:28:01;;;;;;;12.27;2.85;;;27.80;62.30;;;;;;5028493;28;20442;-76
2023/05/18 11:30:32;;;;;;;9.05;3.15;;;28.30;61.20;;;;;;5024310;28;20044;-74
2023/05/18 11:33:17;;;;;;;;;;;28.20;61.10;;;;;;5029525;28;20037;-73
2023/05/18 11:36:07;;;;;;;8.43;2.60;;;28.20;61.10;;;;;;5014673;28;19966;-76
2023/05/18 11:39:01;;;;;;;9.73;3.08;;;28.20;60.90;;;;;;5021651;28;20053;-75
2023/05/18 11:41:45;;;;;;;10.57;2.80;;;28.10;61.20;;;;;;5029615;28;20025;-72
2023/05/18 11:44:11;;;;;;;10.70;3.03;;;27.90;62.00;;;;;;5021626;28;20025;-75
2023/05/18 11:46:39;;;;;;;7.10;2.20;;;27.70;61.10;;;;;;5022179;28;20064;-75
2023/05/18 11:49:08;;;;;;;6.10;2.30;;;27.30;60.90;;;;;;5028898;28;20045;-75
2023/05/18 11:51:57;;;;;;;7.53;2.78;;;26.50;61.50;;;;;;5015875;28;20038;-75
2023/05/18 11:54:25;;;;;;;7.28;2.88;;;25.50;62.70;;;;;;5003685;28;20701;-74
2023/05/18 11:56:52;;;;;;;10.10;2.80;;;25.30;63.20;;;;;;5025772;28;20040;-76
2023/05/18 11:59:39;;;;;;;8.82;2.63;;;25.20;62.20;;;;;;5015160;28;20038;-77
2023/05/18 12:02:05;;;;;;;12.15;2.60;;;25.20;62.30;;;;;;5000820;28;20033;-72
2023/05/18 12:04:32;;;;;;;9.30;2.80;;;25.30;62.80;;;;;;5023839;28;20025;-72
2023/05/18 12:06:58;;;;;;;9.40;2.33;;;25.70;62.10;;;;;;5019351;28;20022;-74
2023/05/18 12:09:25;;;;;;;5.90;2.15;;;25.70;61.50;;;;;;5017812;28;20113;-74
2023/05/18 12:11:51;;;;;;;8.30;2.38;;;25.90;61.40;;;;;;5022979;28;20029;-73
2023/05/18 12:14:21;;;;;;;8.85;3.15;;;26.30;61.10;;;;;;5023758;28;20382;-75
2023/05/18 12:16:48;;;;;;;7.47;2.20;;;26.70;61.10;;;;;;5025069;28;20032;-74
2023/05/18 12:19:14;;;;;;;6.80;2.50;;;27.20;60.50;;;;;;5015074;28;20390;-76
2023/05/18 12:21:39;;;;;;;6.90;2.20;;;27.60;60.20;;;;;;5022838;28;20378;-75
2023/05/18 12:24:05;;;;;;;8.75;2.47;;;27.80;60.00;;;;;;5019784;28;20164;-71
2023/05/18 12:26:31;;;;;;;6.90;2.35;;;28.00;59.70;;;;;;5019998;28;20023;-74
2023/05/18 12:28:59;;;;;;;11.68;2.83;;;28.10;59.70;;;;;;5026892;28;20033;-75
2023/05/18 12:31:25;;;;;;;4.93;2.00;;;27.90;59.20;;;;;;5016197;28;20477;-73
2023/05/18 12:33:53;;;;;;;8.35;2.70;;;27.70;59.10;;;;;;5030394;28;20025;-76
2023/05/18 12:36:19;;;;;;;10.68;2.33;;;27.60;59.60;;;;;;5029889;28;20029;-76
2023/05/18 12:38:51;;;;;;;12.45;2.55;;;27.10;59.90;;;;;;5026088;28;20049;-74
2023/05/18 12:41:25;;;;;;;7.03;2.28;;;26.50;60.10;;;;;;5029152;28;20037;-75
2023/05/18 12:43:53;;;;;;;7.32;2.00;;;25.80;60.60;;;;;;5016351;28;20087;-72
2023/05/18 12:46:23;;;;;;;6.20;2.20;;;24.90;61.90;;;;;;5023467;28;20097;-73
2023/05/18 12:48:56;;;;;;;7.93;2.78;;;24.10;63.00;;;;;;5018235;28;20478;-72